Time;durP1;ratioP1;P1;durP2;ratioP2;P2;SDS_P1;SDS_P2;PMS_P1;PMS_P2;Temp;Humidity;BMP_temperature;BMP_pressure;BME280_temperature;BME280_humidity;BME280_pressure;Samples;Min_cycle;Max_cycle;Signal;HPM_P1;HPM_P2
2023/07/07 00:02:23;;;;;;;8.55;3.55;;;;;;;13.37;nan;101810.41;4973586;28;20054;-49
2023/07/07 00:04:51;;;;;;;5.55;3.65;;;;;;;13.35;nan;101806.91;4971896;28;20059;-51
2023/07/07 00:07:18;;;;;;;11.32;3.38;;;;;;;13.32;nan;101804.41;4970941;28;20387;-50
2023/07/07 00:09:44;;;;;;;5.28;3.53;;;;;;;13.28;nan;101816.03;4971816;28;20061;-51
2023/07/07 00:12:13;;;;;;;7.97;3.20;;;;;;;13.25;nan;101805.53;4969464;28;20043;-49
2023/07/07 00:14:39;;;;;;;6.50;2.85;;;;;;;13.15;nan;101806.84;4972817;28;20059;-49
2023/07/07 00:17:06;;;;;;;7.80;3.40;;;;;;;13.09;nan;101810.59;4970805;28;20058;-49
2023/07/07 00:19:33;;;;;;;6.38;3.33;;;;;;;13.02;nan;101803.81;4968070;28;20475;-49
2023/07/07 00:22:01;;;;;;;4.88;3.35;;;;;;;12.97;nan;101801.31;4972983;28;20042;-49
2023/07/07 00:24:28;;;;;;;4.25;2.90;;;;;;;12.92;nan;101813.91;4970519;28;20077;-49
2023/07/07 00:26:55;;;;;;;5.05;3.58;;;;;;;12.90;nan;101821.06;4973654;28;20054;-49
2023/07/07 00:29:22;;;;;;;7.03;3.38;;;;;;;12.90;nan;101810.47;4969687;28;20062;-49
2023/07/07 00:31:48;;;;;;;6.07;3.40;;;;;;;12.88;nan;101816.72;4973041;28;20047;-49
2023/07/07 00:34:15;;;;;;;5.07;3.58;;;;;;;12.84;nan;101826.59;4965273;28;20047;-49
2023/07/07 00:36:42;;;;;;;6.88;3.47;;;;;;;12.82;nan;101823.16;4970969;28;20047;-49
2023/07/07 00:39:09;;;;;;;6.70;3.78;;;;;;;12.74;nan;101820.78;4973088;28;20081;-49
2023/07/07 00:41:36;;;;;;;5.20;3.40;;;;;;;12.76;nan;101831.34;4965122;28;20055;-50
2023/07/07 00:44:06;;;;;;;23.48;3.88;;;;;;;12.71;nan;101828.00;4974273;28;20418;-49
2023/07/07 00:46:33;;;;;;;4.80;3.63;;;;;;;12.67;nan;101836.06;4964367;28;20050;-49
2023/07/07 00:49:03;;;;;;;8.38;4.35;;;;;;;12.69;nan;101841.31;4973316;28;20055;-49
2023/07/07 00:51:34;;;;;;;17.65;5.60;;;;;;;12.78;nan;101845.41;4968464;28;20047;-49
2023/07/07 00:54:06;;;;;;;5.88;3.92;;;;;;;12.76;nan;101842.81;4978546;28;20458;-49
2023/07/07 00:56:37;;;;;;;31.10;4.25;;;;;;;12.78;nan;101848.94;4977283;28;20055;-49
2023/07/07 00:59:10;;;;;;;6.75;3.67;;;;;;;12.78;nan;101848.06;4976625;28;20069;-49
2023/07/07 01:01:38;;;;;;;10.25;5.10;;;;;;;12.79;nan;101849.78;4971017;28;20047;-50
2023/07/07 01:04:10;;;;;;;9.15;4.93;;;;;;;12.78;nan;101853.34;4975532;28;20521;-49
2023/07/07 01:06:43;;;;;;;7.25;4.65;;;;;;;12.66;nan;101852.88;4975635;28;20050;-50
2023/07/07 01:09:10;;;;;;;10.50;4.93;;;;;;;12.62;nan;101853.94;4975538;28;20046;-49
2023/07/07 01:11:38;;;;;;;5.93;5.00;;;;;;;12.56;nan;101855.97;4974237;28;20049;-49
2023/07/07 01:14:17;;;;;;;8.60;4.63;;;;;;;12.53;nan;101854.25;4967917;28;20055;-49
2023/07/07 01:16:44;;;;;;;9.63;4.90;;;;;;;12.44;nan;101854.59;4975987;28;20113;-49
2023/07/07 01:19:31;;;;;;;6.93;4.47;;;;;;;12.42;nan;101852.03;4971236;28;20109;-49
2023/07/07 01:22:32;;;;;;;6.78;4.70;;;;;;;12.46;nan;101850.13;4974003;28;20069;-49
2023/07/07 01:25:19;;;;;;;8.63;4.75;;;;;;;12.45;nan;101848.38;4970476;28;20059;-49
2023/07/07 01:28:07;;;;;;;17.52;4.75;;;;;;;12.47;nan;101850.06;4976640;28;20052;-49
2023/07/07 01:30:58;;;;;;;10.07;4.20;;;;;;;12.51;nan;101853.47;4972522;28;21794;-50
2023/07/07 01:33:28;;;;;;;8.45;4.20;;;;;;;12.49;nan;101852.66;4973344;28;20050;-49
2023/07/07 01:35:55;;;;;;;6.15;4.65;;;;;;;12.53;nan;101858.72;4977400;28;20081;-49
2023/07/07 01:38:32;;;;;;;7.78;4.40;;;;;;;12.53;nan;101858.72;4979198;28;20086;-49
2023/07/07 01:41:10;;;;;;;7.13;4.72;;;;;;;12.50;nan;101854.38;4975844;28;20050;-50
2023/07/07 01:44:09;;;;;;;6.93;4.85;;;;;;;12.40;nan;101855.63;4973822;28;20051;-49
2023/07/07 01:47:17;;;;;;;9.70;5.03;;;;;;;12.30;nan;101858.59;4973401;28;20431;-49
2023/07/07 01:50:03;;;;;;;5.95;4.75;;;;;;;12.30;nan;101853.31;4966459;28;20055;-49
2023/07/07 01:52:42;;;;;;;8.93;5.97;;;;;;;12.32;nan;101855.03;4974183;28;20050;-49
2023/07/07 01:55:15;;;;;;;8.70;5.97;;;;;;;12.29;nan;101862.19;4974345;28;20093;-49
2023/07/07 01:57:45;;;;;;;9.30;5.35;;;;;;;12.32;nan;101865.66;4976148;28;20046;-49
2023/07/07 02:00:15;;;;;;;9.55;5.50;;;;;;;12.32;nan;101855.91;4976920;28;20061;-49
2023/07/07 02:02:41;;;;;;;8.93;5.13;;;;;;;12.29;nan;101867.50;4977706;28;20494;-49
2023/07/07 02:05:10;;;;;;;8.55;5.75;;;;;;;12.24;nan;101864.16;4975741;28;20069;-49
2023/07/07 02:07:38;;;;;;;6.53;4.80;;;;;;;12.16;nan;101863.50;4975882;28;20051;-49
2023/07/07 02:10:05;;;;;;;8.23;5.20;;;;;;;12.15;nan;101864.44;4975900;28;20097;-49
2023/07/07 02:12:32;;;;;;;10.48;5.93;;;;;;;12.14;nan;101870.66;4973832;28;20076;-49
2023/07/07 02:14:59;;;;;;;13.85;5.93;;;;;;;12.10;nan;101871.69;4978173;28;20054;-49
2023/07/07 02:17:26;;;;;;;10.63;6.47;;;;;;;12.06;nan;101870.06;4975711;28;20414;-49
2023/07/07 02:19:53;;;;;;;8.05;5.30;;;;;;;11.99;nan;101868.53;4975517;28;20062;-49
2023/07/07 02:22:19;;;;;;;10.07;5.53;;;;;;;11.96;nan;101864.19;4975497;28;20059;-49
2023/07/07 02:24:46;;;;;;;11.00;6.45;;;;;;;11.88;nan;101869.75;4976505;28;20058;-49
2023/07/07 02:27:13;;;;;;;11.50;5.78;;;;;;;11.86;nan;101868.91;4976614;28;20135;-49
2023/07/07 02:29:39;;;;;;;11.93;5.97;;;;;;;11.83;nan;101879.59;4978911;28;20124;-49
2023/07/07 02:32:07;;;;;;;10.82;6.05;;;;;;;11.76;nan;101886.03;4975692;28;20050;-49
2023/07/07 02:34:35;;;;;;;15.90;6.68;;;;;;;11.74;nan;101890.53;4974604;28;20061;-49
2023/07/07 02:37:02;;;;;;;11.50;6.40;;;;;;;11.75;nan;101897.53;4973051;28;20055;-49
2023/07/07 02:39:28;;;;;;;12.15;6.72;;;;;;;11.77;nan;101890.44;4975384;28;20051;-49
2023/07/07 02:41:55;;;;;;;10.80;6.93;;;;;;;11.70;nan;101888.88;4974899;28;20111;-49
2023/07/07 02:44:21;;;;;;;11.90;6.22;;;;;;;11.74;nan;101896.66;4973513;28;20055;-49
2023/07/07 02:46:49;;;;;;;9.98;6.50;;;;;;;11.78;nan;101891.28;4964610;28;20530;-49
2023/07/07 02:49:17;;;;;;;9.63;6.38;;;;;;;11.75;nan;101892.22;4975267;28;20054;-49
2023/07/07 02:51:44;;;;;;;10.77;6.22;;;;;;;11.73;nan;101883.47;4978203;28;20043;-49
2023/07/07 02:54:11;;;;;;;10.27;6.88;;;;;;;11.70;nan;101884.47;4977314;28;20055;-49
2023/07/07 02:56:37;;;;;;;8.25;5.65;;;;;;;11.71;nan;101890.63;4979875;28;20051;-49
2023/07/07 02:59:05;;;;;;;9.55;6.72;;;;;;;11.69;nan;101887.16;4975014;28;20062;-49
2023/07/07 03:01:32;;;;;;;9.00;5.90;;;;;;;11.70;nan;101883.56;4974242;28;20615;-49
2023/07/07 03:03:59;;;;;;;15.52;6.90;;;;;;;11.66;nan;101881.94;4971596;28;20062;-49
2023/07/07 03:06:26;;;;;;;9.55;6.00;;;;;;;11.62;nan;101885.59;4974842;28;20070;-49
2023/07/07 03:08:53;;;;;;;14.25;7.03;;;;;;;11.57;nan;101883.97;4974712;28;20399;-49
2023/07/07 03:11:22;;;;;;;14.35;7.15;;;;;;;11.55;nan;101885.78;4974722;28;20050;-49
2023/07/07 03:13:49;;;;;;;11.45;6.75;;;;;;;11.54;nan;101889.38;4971957;28;20411;-49
2023/07/07 03:16:24;;;;;;;11.90;6.50;;;;;;;11.52;nan;101887.69;4973678;28;20121;-49
2023/07/07 03:18:53;;;;;;;7.78;6.15;;;;;;;11.54;nan;101893.78;4973937;28;20054;-49
2023/07/07 03:21:21;;;;;;;13.90;7.25;;;;;;;11.51;nan;101886.81;4974831;28;20042;-49
2023/07/07 03:23:53;;;;;;;11.00;6.53;;;;;;;11.55;nan;101885.78;4973433;28;20105;-49
2023/07/07 03:26:21;;;;;;;9.30;6.43;;;;;;;11.56;nan;101891.97;4971915;28;20058;-49
2023/07/07 03:28:48;;;;;;;11.30;6.32;;;;;;;11.56;nan;101887.53;4973479;28;20086;-49
2023/07/07 03:31:30;;;;;;;12.38;6.10;;;;;;;11.56;nan;101882.25;4974388;28;20051;-49
2023/07/07 03:33:59;;;;;;;9.88;6.63;;;;;;;11.58;nan;101891.00;4973597;28;20055;-49
2023/07/07 03:36:28;;;;;;;9.75;6.25;;;;;;;11.60;nan;101888.28;4974490;28;20054;-49
2023/07/07 03:38:55;;;;;;;10.80;6.85;;;;;;;11.62;nan;101888.25;4973444;28;20063;-49
2023/07/07 03:41:26;;;;;;;11.40;6.70;;;;;;;11.62;nan;101889.09;4974238;28;20055;-49
2023/07/07 03:43:55;;;;;;;13.93;7.20;;;;;;;11.61;nan;101889.19;4974844;28;20069;-52
2023/07/07 03:46:24;;;;;;;9.88;6.80;;;;;;;11.63;nan;101893.50;4967992;28;20062;-49
2023/07/07 03:48:53;;;;;;;8.95;6.25;;;;;;;11.65;nan;101896.09;4955029;28;20455;-49
2023/07/07 03:51:21;;;;;;;10.55;6.30;;;;;;;11.67;nan;101897.78;4970670;28;20054;-49
2023/07/07 03:53:49;;;;;;;12.10;7.65;;;;;;;11.72;nan;101902.91;4990125;28;20050;-49
2023/07/07 03:56:16;;;;;;;10.75;6.68;;;;;;;11.71;nan;101901.22;4973972;28;20093;-49
2023/07/07 03:58:43;;;;;;;9.40;6.20;;;;;;;11.81;nan;101902.63;4972705;28;20058;-48
2023/07/07 04:01:13;;;;;;;13.85;6.25;;;;;;;11.85;nan;101906.94;4974082;28;20597;-50
2023/07/07 04:03:42;;;;;;;9.27;6.07;;;;;;;11.91;nan;101906.75;4974394;28;20062;-50
2023/07/07 04:06:11;;;;;;;13.48;7.82;;;;;;;11.98;nan;101910.06;4974096;28;20054;-50
2023/07/07 04:08:38;;;;;;;9.45;6.55;;;;;;;12.00;nan;101907.34;4973367;28;20047;-50
2023/07/07 04:11:14;;;;;;;11.65;6.28;;;;;;;12.06;nan;101912.47;4980838;28;20050;-50
2023/07/07 04:13:42;;;;;;;11.32;6.88;;;;;;;12.10;nan;101906.16;4979351;28;20062;-50
2023/07/07 04:16:11;;;;;;;11.32;6.72;;;;;;;12.16;nan;101897.97;4975201;28;20059;-50
2023/07/07 04:18:39;;;;;;;12.05;7.32;;;;;;;12.22;nan;101903.06;4972662;28;20047;-50
2023/07/07 04:21:09;;;;;;;10.25;6.93;;;;;;;12.26;nan;101898.53;4963409;28;20459;-50
2023/07/07 04:23:39;;;;;;;23.02;6.55;;;;;;;12.32;nan;101905.41;4974047;28;20517;-50
2023/07/07 04:26:07;;;;;;;10.00;6.35;;;;;;;12.34;nan;101908.88;4966269;28;20059;-50
2023/07/07 04:28:37;;;;;;;12.48;7.22;;;;;;;12.43;nan;101922.66;4993427;28;20058;-50
2023/07/07 04:31:06;;;;;;;11.77;6.27;;;;;;;12.49;nan;101916.31;4975376;28;20439;-50
2023/07/07 04:33:33;;;;;;;13.52;6.82;;;;;;;12.59;nan;101916.84;4972137;28;20050;-50
2023/07/07 04:36:01;;;;;;;9.23;6.10;;;;;;;12.67;nan;101915.63;4973751;28;20054;-50
2023/07/07 04:38:32;;;;;;;7.90;6.03;;;;;;;12.76;nan;101918.88;4973570;28;20046;-49
2023/07/07 04:41:04;;;;;;;14.00;7.13;;;;;;;12.88;nan;101930.81;4972534;28;20055;-51
2023/07/07 04:43:32;;;;;;;9.23;6.95;;;;;;;13.01;nan;101919.72;4973760;28;20062;-49
2023/07/07 04:46:00;;;;;;;16.73;7.47;;;;;;;13.15;nan;101920.97;4971996;28;20051;-50
2023/07/07 04:48:26;;;;;;;10.98;6.80;;;;;;;13.27;nan;101919.66;4972810;28;20423;-50
2023/07/07 04:51:03;;;;;;;12.77;6.63;;;;;;;13.39;nan;101920.06;4973780;28;20058;-50
2023/07/07 04:53:30;;;;;;;12.85;8.35;;;;;;;13.52;nan;101924.91;4968202;28;20111;-49
2023/07/07 04:56:01;;;;;;;9.27;6.57;;;;;;;13.61;nan;101913.91;4974544;28;20066;-50
2023/07/07 04:58:29;;;;;;;10.65;6.22;;;;;;;13.69;nan;101917.13;4975278;28;20061;-50
2023/07/07 05:01:11;;;;;;;13.93;6.30;;;;;;;13.79;nan;101922.06;4972855;28;20469;-50
2023/07/07 05:03:40;;;;;;;10.90;6.63;;;;;;;13.90;nan;101925.16;4978722;28;20054;-49
2023/07/07 05:06:07;;;;;;;11.80;5.43;;;;;;;14.04;nan;101920.16;4972889;28;20051;-50
2023/07/07 05:08:36;;;;;;;10.20;6.38;;;;;;;14.08;nan;101929.72;4972313;28;20070;-50
2023/07/07 05:11:03;;;;;;;8.98;5.47;;;;;;;14.29;nan;101916.44;4972642;28;20055;-50
2023/07/07 05:13:30;;;;;;;10.70;5.72;;;;;;;14.44;nan;101917.59;4973679;28;20054;-50
2023/07/07 05:16:02;;;;;;;17.90;5.53;;;;;;;14.61;nan;101916.88;4973157;28;20058;-50
2023/07/07 05:18:29;;;;;;;16.30;5.43;;;;;;;14.76;nan;101910.88;4972170;28;20046;-50
2023/07/07 05:20:56;;;;;;;11.45;5.45;;;;;;;14.88;nan;101914.78;4974422;28;20062;-50
2023/07/07 05:23:24;;;;;;;9.20;4.85;;;;;;;15.02;nan;101911.47;4974904;28;20051;-50
2023/07/07 05:25:51;;;;;;;8.90;5.53;;;;;;;15.13;nan;101919.84;4984688;28;20061;-50
2023/07/07 05:28:19;;;;;;;7.95;5.20;;;;;;;15.29;nan;101914.66;4973146;28;20058;-50
2023/07/07 05:30:46;;;;;;;12.10;4.22;;;;;;;15.36;nan;101920.56;4972958;28;20054;-50
2023/07/07 05:33:13;;;;;;;7.57;4.60;;;;;;;15.49;nan;101921.69;4979931;28;20062;-50
2023/07/07 05:35:54;;;;;;;7.75;4.70;;;;;;;15.62;nan;101915.78;4969008;28;20051;-51
2023/07/07 05:38:23;;;;;;;11.23;4.38;;;;;;;15.72;nan;101917.06;4976149;28;20062;-50
2023/07/07 05:40:51;;;;;;;11.52;4.72;;;;;;;15.87;nan;101920.81;4976948;28;20054;-50
2023/07/07 05:43:21;;;;;;;8.48;4.72;;;;;;;15.95;nan;101915.97;4975929;28;20039;-49
2023/07/07 05:45:56;;;;;;;8.40;4.95;;;;;;;16.09;nan;101909.94;4981740;28;20143;-50
2023/07/07 05:48:24;;;;;;;11.63;4.55;;;;;;;16.21;nan;101914.66;4976375;28;20051;-51
2023/07/07 05:50:51;;;;;;;7.82;4.07;;;;;;;16.39;nan;101920.00;4973626;28;20063;-49
2023/07/07 05:53:18;;;;;;;5.05;4.10;;;;;;;16.48;nan;101927.53;4974911;28;20110;-52
2023/07/07 05:55:48;;;;;;;10.40;4.28;;;;;;;16.68;nan;101926.47;4974843;28;20046;-49
2023/07/07 05:58:16;;;;;;;7.50;3.90;;;;;;;16.83;nan;101924.78;4976971;28;20048;-49
2023/07/07 06:00:43;;;;;;;8.10;3.90;;;;;;;16.92;nan;101929.69;4975051;28;20055;-49
2023/07/07 06:03:10;;;;;;;7.63;3.88;;;;;;;17.09;nan;101925.25;4975777;28;20470;-49
2023/07/07 06:05:37;;;;;;;8.05;4.68;;;;;;;17.29;nan;101935.69;4976553;28;20051;-49
2023/07/07 06:08:04;;;;;;;6.38;3.85;;;;;;;17.43;nan;101930.44;4981194;28;20054;-50
2023/07/07 06:10:32;;;;;;;4.65;3.65;;;;;;;17.51;nan;101923.81;4987251;28;20062;-49
2023/07/07 06:13:00;;;;;;;10.23;3.28;;;;;;;17.67;nan;101934.47;4975686;28;20474;-50
2023/07/07 06:15:26;;;;;;;5.82;3.42;;;;;;;17.81;nan;101931.88;4975420;28;20374;-50
2023/07/07 06:17:55;;;;;;;8.88;3.90;;;;;;;17.93;nan;101936.56;4976729;28;20058;-50
2023/07/07 06:20:22;;;;;;;8.98;4.10;;;;;;;18.05;nan;101945.69;4975430;28;20051;-50
2023/07/07 06:22:49;;;;;;;7.10;3.47;;;;;;;18.17;nan;101944.94;4976868;28;20058;-49
2023/07/07 06:25:16;;;;;;;5.18;3.45;;;;;;;18.27;nan;101941.75;4976949;28;20058;-49
2023/07/07 06:27:42;;;;;;;6.30;3.22;;;;;;;18.38;nan;101947.31;4976300;28;20050;-48
2023/07/07 06:30:10;;;;;;;9.95;4.15;;;;;;;18.53;nan;101943.69;4974324;28;20125;-48
2023/07/07 06:32:37;;;;;;;11.45;3.47;;;;;;;18.68;nan;101943.72;4976506;28;20054;-50
2023/07/07 06:35:04;;;;;;;6.97;3.40;;;;;;;18.81;nan;101939.34;4975115;28;20055;-49
2023/07/07 06:37:31;;;;;;;5.85;2.92;;;;;;;18.93;nan;101937.78;4974407;28;20483;-50
2023/07/07 06:39:57;;;;;;;14.35;3.88;;;;;;;19.06;nan;101943.19;4978027;28;20051;-50
2023/07/07 06:42:24;;;;;;;6.35;3.65;;;;;;;19.16;nan;101944.38;4966776;28;20054;-49
2023/07/07 06:44:50;;;;;;;10.80;4.18;;;;;;;19.30;nan;101939.94;4956527;28;20063;-49
2023/07/07 06:47:18;;;;;;;7.85;3.70;;;;;;;19.38;nan;101937.63;4973944;28;20065;-49
2023/07/07 06:49:44;;;;;;;5.15;3.33;;;;;;;19.53;nan;101942.00;4974719;28;20068;-50
2023/07/07 06:52:11;;;;;;;7.50;2.75;;;;;;;19.69;nan;101935.66;4982067;28;20447;-49
2023/07/07 06:54:38;;;;;;;4.25;2.95;;;;;;;19.81;nan;101945.59;4967174;28;20051;-50
2023/07/07 06:57:05;;;;;;;10.35;2.63;;;;;;;19.88;nan;101933.50;4974903;28;20065;-49
2023/07/07 06:59:31;;;;;;;9.25;3.00;;;;;;;20.11;nan;101936.47;4983937;28;20447;-50
2023/07/07 07:01:58;;;;;;;5.60;2.22;;;;;;;20.23;nan;101943.69;4977599;28;20054;-50
2023/07/07 07:04:24;;;;;;;8.07;2.70;;;;;;;20.30;nan;101946.81;4975279;28;20046;-49
2023/07/07 07:06:51;;;;;;;6.00;2.28;;;;;;;20.40;nan;101941.66;4968646;28;20465;-50
2023/07/07 07:09:18;;;;;;;7.63;3.00;;;;;;;20.56;nan;101942.34;4970967;28;20051;-50
2023/07/07 07:11:44;;;;;;;4.15;2.55;;;;;;;20.72;nan;101947.53;4968040;28;20463;-50
2023/07/07 07:14:14;;;;;;;3.40;2.40;;;;;;;20.89;nan;101944.53;4982816;28;20081;-50
2023/07/07 07:16:40;;;;;;;10.40;2.65;;;;;;;20.92;nan;101946.13;4971965;28;20217;-50
2023/07/07 07:19:07;;;;;;;4.95;2.40;;;;;;;21.12;nan;101941.16;4972193;28;20097;-50
2023/07/07 07:21:33;;;;;;;3.92;2.42;;;;;;;21.14;nan;101941.94;4973799;28;20466;-49
2023/07/07 07:24:00;;;;;;;5.28;2.22;;;;;;;21.16;nan;101945.38;4972072;28;20467;-49
2023/07/07 07:26:27;;;;;;;3.85;2.13;;;;;;;21.30;nan;101945.25;4975165;28;20047;-50
2023/07/07 07:28:53;;;;;;;4.97;2.53;;;;;;;21.35;nan;101940.38;4974838;28;20054;-50
2023/07/07 07:31:20;;;;;;;5.97;2.22;;;;;;;21.45;nan;101941.41;4974523;28;20069;-50
2023/07/07 07:33:52;;;;;;;3.67;2.25;;;;;;;21.61;nan;101943.00;4968848;28;20047;-50
2023/07/07 07:36:19;;;;;;;4.65;2.38;;;;;;;21.74;nan;101941.16;4972092;28;20492;-49
2023/07/07 07:38:46;;;;;;;4.35;2.30;;;;;;;21.71;nan;101933.31;4972449;28;20058;-50
2023/07/07 07:41:12;;;;;;;3.20;2.45;;;;;;;21.76;nan;101939.19;4968908;28;20050;-50
2023/07/07 07:43:39;;;;;;;4.97;2.10;;;;;;;21.89;nan;101927.50;4965056;28;20051;-50
2023/07/07 07:46:06;;;;;;;3.97;2.38;;;;;;;21.95;nan;101937.81;4965589;28;20062;-50
2023/07/07 07:48:33;;;;;;;4.90;2.67;;;;;;;22.11;nan;101938.34;4967689;28;20386;-50
2023/07/07 07:50:59;;;;;;;4.18;2.25;;;;;;;22.27;nan;101945.28;4977564;28;20050;-49
2023/07/07 07:53:26;;;;;;;6.80;2.30;;;;;;;22.38;nan;101945.34;4975001;28;20104;-50
2023/07/07 07:55:53;;;;;;;4.10;1.85;;;;;;;22.47;nan;101949.16;4977879;28;20055;-49
2023/07/07 07:58:20;;;;;;;4.65;2.05;;;;;;;22.39;nan;101941.66;4971400;28;20459;-50
2023/07/07 08:00:47;;;;;;;2.97;2.25;;;;;;;22.53;nan;101944.16;4973231;28;20057;-50
2023/07/07 08:03:13;;;;;;;4.90;1.60;;;;;;;22.53;nan;101946.84;4964727;28;20114;-50
2023/07/07 08:05:40;;;;;;;4.72;1.92;;;;;;;22.75;nan;101945.16;4969863;28;20061;-49
2023/07/07 08:08:07;;;;;;;3.92;1.95;;;;;;;22.81;nan;101946.53;4967643;28;20059;-48
2023/07/07 08:10:34;;;;;;;3.95;1.98;;;;;;;22.98;nan;101948.72;4963001;28;20084;-49
2023/07/07 08:13:00;;;;;;;5.57;1.83;;;;;;;22.89;nan;101950.31;4969784;28;20054;-48
2023/07/07 08:15:27;;;;;;;3.92;1.77;;;;;;;23.08;nan;101954.28;4979220;28;20055;-50
2023/07/07 08:17:54;;;;;;;4.72;1.50;;;;;;;23.06;nan;101950.81;4972017;28;20387;-49
2023/07/07 08:20:23;;;;;;;3.05;1.65;;;;;;;22.84;nan;101952.53;4972243;28;20042;-49
2023/07/07 08:22:50;;;;;;;3.80;1.50;;;;;;;22.94;nan;101951.81;4968038;28;20125;-49
2023/07/07 08:25:17;;;;;;;3.20;1.70;;;;;;;23.05;nan;101949.13;4972243;28;20395;-50
2023/07/07 08:27:43;;;;;;;3.50;1.73;;;;;;;23.17;nan;101952.69;4973633;28;20355;-48
2023/07/07 08:30:30;;;;;;;3.97;1.80;;;;;;;23.20;nan;101953.31;4970031;28;20065;-48
2023/07/07 08:32:57;;;;;;;5.20;2.00;;;;;;;23.48;nan;101961.84;4973347;28;20055;-48
2023/07/07 08:35:23;;;;;;;4.00;1.20;;;;;;;23.59;nan;101952.91;4966246;28;20436;-49
2023/07/07 08:37:50;;;;;;;3.55;1.60;;;;;;;23.64;nan;101945.28;4960307;28;20051;-48
2023/07/07 08:40:21;;;;;;;3.53;1.50;;;;;;;23.81;nan;101952.81;4971055;28;20066;-48
2023/07/07 08:42:49;;;;;;;2.97;1.80;;;;;;;23.91;nan;101947.53;4972893;28;20058;-48
2023/07/07 08:45:21;;;;;;;3.58;1.70;;;;;;;23.71;nan;101956.41;4964922;28;20497;-50
2023/07/07 08:48:13;;;;;;;3.35;1.60;;;;;;;23.62;nan;101953.50;4967248;28;20050;-50
2023/07/07 08:51:12;;;;;;;4.45;1.80;;;;;;;23.70;nan;101960.09;4965784;28;20363;-50
2023/07/07 08:53:51;;;;;;;3.40;1.73;;;;;;;23.87;nan;101962.28;4924183;28;20051;-49
2023/07/07 08:56:39;;;;;;;3.72;1.13;;;;;;;24.07;nan;101952.50;4961313;28;20336;-48
2023/07/07 08:59:47;;;;;;;4.75;2.58;;;;;;;24.30;nan;101953.25;4964038;28;20109;-49
2023/07/07 09:02:32;;;;;;;2.78;1.35;;;;;;;24.21;nan;101954.06;4975625;28;20068;-49
2023/07/07 09:05:20;;;;;;;3.88;0.88;;;;;;;24.11;nan;101947.69;4969000;28;20059;-49
2023/07/07 09:07:53;;;;;;;6.38;1.98;;;;;;;23.95;nan;101953.56;4968638;28;20079;-49
2023/07/07 09:10:46;;;;;;;3.35;1.67;;;;;;;24.04;nan;101951.91;4973344;28;20067;-49
2023/07/07 09:13:29;;;;;;;3.42;1.10;;;;;;;24.35;nan;101951.00;4970955;28;20055;-49
2023/07/07 09:16:18;;;;;;;2.75;1.20;;;;;;;24.41;nan;101960.44;4974839;28;20550;-48
2023/07/07 09:19:04;;;;;;;1.30;0.80;;;;;;;24.51;nan;101955.13;4967767;28;20360;-49
2023/07/07 09:21:53;;;;;;;3.75;1.33;;;;;;;24.40;nan;101963.28;4964446;28;20063;-49
2023/07/07 09:24:47;;;;;;;5.45;1.40;;;;;;;24.31;nan;101954.97;4971874;28;20166;-49
2023/07/07 09:27:21;;;;;;;3.53;1.20;;;;;;;24.16;nan;101945.47;4970948;28;20101;-48
2023/07/07 09:29:53;;;;;;;2.15;1.00;;;;;;;24.28;nan;101954.38;4970295;28;20058;-49
2023/07/07 09:32:22;;;;;;;2.65;1.50;;;;;;;24.27;nan;101952.66;4977255;28;20039;-57
2023/07/07 09:34:49;;;;;;;2.92;1.58;;;;;;;24.42;nan;101955.91;4973579;28;20057;-49
2023/07/07 09:37:28;;;;;;;5.35;1.35;;;;;;;24.69;nan;101942.72;4973930;28;20763;-50
2023/07/07 09:40:12;;;;;;;2.03;1.25;;;;;;;24.76;nan;101942.19;4972326;28;20066;-49
2023/07/07 09:42:53;;;;;;;3.03;1.70;;;;;;;24.77;nan;101949.34;4968114;28;20054;-51
2023/07/07 09:45:28;;;;;;;1.90;1.40;;;;;;;24.69;nan;101942.72;4973093;28;20059;-49
2023/07/07 09:48:33;;;;;;;3.67;1.17;;;;;;;24.52;nan;101935.19;4967624;28;20061;-50
2023/07/07 09:51:13;;;;;;;2.90;1.05;;;;;;;24.29;nan;101946.16;4964646;28;20062;-48
2023/07/07 09:53:41;;;;;;;5.53;2.13;;;;;;;24.32;nan;101945.03;4970233;28;20066;-48
2023/07/07 09:56:21;;;;;;;3.65;1.70;;;;;;;24.56;nan;101939.38;4974066;28;20066;-49
2023/07/07 09:58:53;;;;;;;5.57;1.27;;;;;;;24.75;nan;101935.94;4972815;28;20486;-49
2023/07/07 10:01:21;;;;;;;3.60;1.42;;;;;;;24.89;nan;101938.28;4968688;28;20058;-49
2023/07/07 10:03:48;;;;;;;6.85;2.58;;;;;;;25.27;nan;101941.28;4969208;28;20043;-49
2023/07/07 10:06:35;;;;;;;2.72;1.63;;;;;;;25.69;nan;101935.69;4970250;28;20105;-49
2023/07/07 10:09:03;;;;;;;3.50;1.23;;;;;;;25.52;nan;101933.66;4966500;28;20055;-49
2023/07/07 10:11:35;;;;;;;6.35;1.38;;;;;;;25.41;nan;101932.78;4972424;28;20062;-49
2023/07/07 10:14:06;;;;;;;4.13;1.30;;;;;;;25.86;nan;101931.44;4969265;28;20142;-50
2023/07/07 10:16:33;;;;;;;4.57;1.20;;;;;;;25.86;nan;101931.44;4970529;28;20338;-49
2023/07/07 10:19:06;;;;;;;3.60;1.48;;;;;;;25.92;nan;101932.72;4973900;28;20055;-49
2023/07/07 10:21:33;;;;;;;4.05;1.60;;;;;;;25.64;nan;101937.97;4970250;28;20055;-49
2023/07/07 10:23:59;;;;;;;6.80;1.40;;;;;;;26.00;nan;101930.19;4972953;28;20438;-49
2023/07/07 10:26:29;;;;;;;3.67;1.52;;;;;;;26.14;nan;101929.75;4972134;28;20047;-49
2023/07/07 10:28:59;;;;;;;2.47;1.52;;;;;;;26.11;nan;101918.38;4966965;28;20059;-50
2023/07/07 10:31:27;;;;;;;6.93;1.80;;;;;;;26.28;nan;101919.47;4973160;28;20104;-49
2023/07/07 10:34:15;;;;;;;4.07;1.65;;;;;;;26.43;nan;101922.56;4967598;28;20133;-49
2023/07/07 10:36:42;;;;;;;4.28;1.80;;;;;;;26.26;nan;101916.06;4971738;28;20784;-49
2023/07/07 10:39:09;;;;;;;4.65;1.77;;;;;;;25.96;nan;101915.22;4965983;28;20058;-49
2023/07/07 10:41:35;;;;;;;2.97;1.60;;;;;;;26.24;nan;101920.75;4965558;28;20117;-49
2023/07/07 10:44:02;;;;;;;3.70;1.55;;;;;;;26.06;nan;101918.78;4971328;28;20070;-50
2023/07/07 10:46:28;;;;;;;6.03;1.55;;;;;;;26.34;nan;101924.31;4968995;28;20062;-50
2023/07/07 10:48:56;;;;;;;5.20;2.22;;;;;;;26.44;nan;101919.72;4966820;28;20050;-50
2023/07/07 10:51:32;;;;;;;3.95;1.52;;;;;;;26.64;nan;101914.28;4969197;28;20065;-50
2023/07/07 10:54:08;;;;;;;3.40;1.30;;;;;;;27.01;nan;101906.13;4969666;28;20097;-49
2023/07/07 10:56:48;;;;;;;5.03;1.50;;;;;;;26.95;nan;101908.59;4963586;28;20390;-49
2023/07/07 10:59:27;;;;;;;2.83;1.60;;;;;;;28.30;nan;101905.94;4964644;28;20240;-49
2023/07/07 11:02:14;;;;;;;4.10;1.50;;;;;;;28.99;nan;101892.41;4968095;28;20066;-49
2023/07/07 11:05:12;;;;;;;3.95;1.17;;;;;;;28.31;nan;101899.50;4968520;28;20125;-51
2023/07/07 11:07:52;;;;;;;3.13;1.70;;;;;;;27.17;nan;101905.50;4966292;28;20046;-51
2023/07/07 11:10:46;;;;;;;4.97;1.80;;;;;;;26.90;nan;101899.03;4966501;28;20066;-51
2023/07/07 11:13:54;;;;;;;4.88;1.65;;;;;;;26.39;nan;101905.75;4964955;28;20055;-51
2023/07/07 11:16:27;;;;;;;2.83;1.40;;;;;;;27.90;nan;101896.41;4925571;28;20557;-51
2023/07/07 11:19:09;;;;;;;4.82;1.50;;;;;;;29.89;nan;101899.13;4963133;28;20055;-51
2023/07/07 11:21:45;;;;;;;3.85;1.40;;;;;;;31.68;nan;101895.16;4967198;28;20043;-50
2023/07/07 11:24:29;;;;;;;3.70;1.50;;;;;;;32.78;nan;101896.53;4965474;28;20047;-50
2023/07/07 11:27:40;;;;;;;4.13;1.58;;;;;;;34.16;nan;101881.78;4971498;28;20337;-52
2023/07/07 11:30:48;;;;;;;4.95;1.60;;;;;;;34.50;nan;101888.41;4964538;28;20051;-50
2023/07/07 11:33:41;;;;;;;5.15;1.60;;;;;;;34.64;nan;101885.72;4958142;28;20051;-52
2023/07/07 11:36:45;;;;;;;3.58;1.73;;;;;;;32.14;nan;101873.25;4969410;28;20066;-50
2023/07/07 11:39:31;;;;;;;5.15;3.13;;;;;;;32.27;nan;101868.03;4969037;28;20058;-50
2023/07/07 11:42:16;;;;;;;4.00;1.20;;;;;;;31.92;nan;101870.34;4963175;28;20065;-50
2023/07/07 11:45:08;;;;;;;3.90;1.40;;;;;;;30.90;nan;101868.59;4971725;28;20053;-50
2023/07/07 11:48:04;;;;;;;3.85;1.70;;;;;;;30.32;nan;101858.88;4961203;28;20366;-50
2023/07/07 11:51:01;;;;;;;3.05;1.38;;;;;;;28.72;nan;101820.91;4969998;28;20064;-51
2023/07/07 11:54:09;;;;;;;4.80;1.52;;;;;;;31.31;nan;101855.78;4969131;28;20073;-50
2023/07/07 11:56:54;;;;;;;3.95;1.70;;;;;;;32.88;nan;101865.09;4971264;28;20058;-51
2023/07/07 11:59:30;;;;;;;2.95;1.40;;;;;;;33.54;nan;101864.16;4967461;28;20117;-49
2023/07/07 12:01:58;;;;;;;4.13;1.08;;;;;;;33.26;nan;101866.81;4967855;28;20781;-49
2023/07/07 12:04:38;;;;;;;3.83;1.10;;;;;;;32.93;nan;101867.25;4966640;28;20051;-51